createdAt,value
2018-05-13T00:01:08.033Z,65.48
2018-05-13T00:03:35.168Z,65.09
2018-05-13T00:06:01.509Z,64.91
2018-05-13T00:08:27.800Z,64.23
2018-05-13T00:10:54.072Z,64.35
2018-05-13T00:13:20.325Z,64.40
2018-05-13T00:15:47.385Z,64.48
2018-05-13T00:18:14.446Z,64.94
2018-05-13T00:20:40.705Z,64.94
2018-05-13T00:23:06.987Z,64.68
2018-05-13T00:25:33.943Z,65.03
2018-05-13T00:28:00.933Z,64.96
2018-05-13T00:30:27.214Z,65.54
2018-05-13T00:32:54.211Z,65.68
2018-05-13T00:35:20.476Z,65.94
2018-05-13T00:37:46.727Z,66.40
2018-05-13T00:40:13.050Z,66.08
2018-05-13T00:42:40.084Z,66.55
2018-05-13T00:45:07.104Z,66.08
2018-05-13T00:47:33.362Z,66.22
2018-05-13T00:49:59.616Z,65.64
2018-05-13T00:52:25.887Z,65.21
2018-05-13T00:54:53.120Z,66.23
2018-05-13T00:57:19.397Z,65.68
2018-05-13T00:59:45.675Z,65.23
2018-05-13T01:02:11.942Z,65.47
2018-05-13T01:04:38.212Z,65.87
2018-05-13T01:07:05.218Z,65.57
2018-05-13T01:09:31.486Z,65.36
2018-05-13T01:11:58.508Z,65.62
2018-05-13T01:14:25.595Z,65.77
2018-05-13T01:16:52.595Z,66.16
2018-05-13T01:19:18.882Z,66.32
2018-05-13T01:21:45.167Z,66.90
2018-05-13T01:24:11.449Z,67.30
2018-05-13T01:26:37.725Z,67.12
2018-05-13T01:29:04.260Z,67.33
2018-05-13T01:31:31.251Z,67.20
2018-05-13T01:33:57.536Z,67.02
2018-05-13T01:36:23.812Z,67.33
2018-05-13T01:38:50.050Z,67.12
2018-05-13T01:41:16.302Z,67.05
2018-05-13T01:43:42.593Z,67.40
2018-05-13T01:46:08.883Z,68.17
2018-05-13T01:48:35.144Z,68.36
2018-05-13T01:51:02.166Z,68.50
2018-05-13T01:53:28.462Z,68.19
2018-05-13T01:55:54.721Z,68.25
2018-05-13T01:58:21.696Z,68.00
2018-05-13T02:00:48.707Z,68.65
2018-05-13T02:03:14.977Z,68.64
2018-05-13T02:05:41.270Z,68.61
2018-05-13T02:08:07.510Z,68.87
2018-05-13T02:10:40.871Z,69.29
2018-05-13T02:13:07.111Z,69.41
2018-05-13T02:15:33.402Z,69.93
2018-05-13T02:17:59.668Z,70.02
2018-05-13T02:20:25.947Z,69.96
2018-05-13T02:22:52.241Z,69.71
2018-05-13T02:25:18.535Z,70.07
2018-05-13T02:27:44.797Z,70.20
2018-05-13T02:30:11.105Z,69.76
2018-05-13T02:32:37.393Z,69.93
2018-05-13T02:35:04.411Z,69.71
2018-05-13T02:37:30.665Z,69.68
2018-05-13T02:39:57.670Z,69.53
2018-05-13T02:42:23.937Z,69.41
2018-05-13T02:44:50.969Z,69.14
2018-05-13T02:47:18.009Z,69.07
2018-05-13T02:49:44.309Z,68.57
2018-05-13T02:52:10.575Z,68.31
2018-05-13T02:54:36.815Z,68.67
2018-05-13T02:57:03.264Z,68.54
2018-05-13T02:59:30.278Z,68.82
2018-05-13T03:01:56.571Z,69.13
2018-05-13T03:04:22.838Z,68.97
2018-05-13T03:06:49.129Z,69.12
2018-05-13T03:09:15.392Z,69.10
2018-05-13T03:11:41.687Z,69.01
2018-05-13T03:14:08.013Z,69.81
2018-05-13T03:16:34.308Z,69.25
2018-05-13T03:19:00.671Z,68.76
2018-05-13T03:21:26.893Z,68.80
2018-05-13T03:23:53.890Z,68.05
2018-05-13T03:26:20.191Z,67.90
2018-05-13T03:28:46.445Z,68.32
2018-05-13T03:31:12.697Z,68.78
2018-05-13T03:33:39.684Z,68.82
2018-05-13T03:36:05.964Z,68.95
2018-05-13T03:38:32.209Z,69.06
2018-05-13T03:40:58.490Z,69.04
2018-05-13T03:43:24.726Z,69.12
2018-05-13T03:45:51.290Z,68.87
2018-05-13T03:48:17.517Z,69.11
2018-05-13T03:50:43.762Z,68.96
2018-05-13T03:53:10.034Z,68.91
2018-05-13T03:55:36.264Z,69.00
2018-05-13T03:58:02.564Z,69.05
2018-05-13T04:00:29.955Z,68.90
2018-05-13T04:02:56.207Z,68.07
2018-05-13T04:05:22.501Z,67.66
2018-05-13T04:11:28.929Z,67.48
2018-05-13T04:14:13.954Z,67.58
2018-05-13T04:16:41.362Z,67.63
2018-05-13T04:19:07.719Z,67.35
2018-05-13T04:21:34.736Z,67.76
2018-05-13T04:24:01.055Z,67.04
2018-05-13T04:26:27.711Z,66.66
2018-05-13T04:28:53.976Z,66.64
2018-05-13T04:31:21.010Z,66.73
2018-05-13T04:33:47.328Z,66.63
2018-05-13T04:36:13.550Z,65.84
2018-05-13T04:38:39.848Z,65.26
2018-05-13T04:41:06.087Z,65.00
2018-05-13T04:43:32.449Z,65.18
2018-05-13T04:45:58.992Z,64.22
2018-05-13T04:48:25.262Z,64.21
2018-05-13T04:50:51.541Z,63.80
2018-05-13T04:53:17.836Z,63.29
2018-05-13T04:55:44.079Z,62.65
2018-05-13T04:58:10.355Z,62.03
2018-05-13T05:00:36.608Z,62.10
2018-05-13T05:03:03.426Z,62.05
2018-05-13T05:05:30.427Z,62.30
2018-05-13T05:07:56.682Z,61.68
2018-05-13T05:10:24.442Z,61.96
2018-05-13T05:12:50.717Z,61.76
2018-05-13T05:15:17.735Z,60.53
2018-05-13T05:17:44.037Z,57.88
2018-05-13T05:20:10.323Z,56.80
2018-05-13T05:22:37.379Z,55.41
2018-05-13T05:25:03.680Z,54.64
2018-05-13T05:27:29.994Z,53.96
2018-05-13T05:29:56.269Z,54.48
2018-05-13T05:32:22.617Z,54.71
2018-05-13T05:34:48.871Z,53.82
2018-05-13T05:37:15.183Z,52.48
2018-05-13T05:39:41.446Z,53.27
2018-05-13T05:42:07.734Z,52.64
2018-05-13T05:44:34.011Z,52.80
2018-05-13T05:47:01.017Z,52.21
2018-05-13T05:49:27.277Z,53.27
2018-05-13T05:51:53.571Z,52.96
2018-05-13T05:54:19.802Z,52.43
2018-05-13T05:56:46.107Z,52.14
2018-05-13T05:59:12.396Z,51.33
2018-05-13T06:01:38.674Z,50.93
2018-05-13T06:04:05.693Z,50.91
2018-05-13T06:06:31.930Z,50.47
2018-05-13T06:08:58.940Z,49.81
2018-05-13T06:11:25.271Z,49.58
2018-05-13T06:13:51.576Z,49.13
2018-05-13T06:16:17.904Z,48.78
2018-05-13T06:18:44.174Z,48.70
2018-05-13T06:21:10.430Z,48.65
2018-05-13T06:23:36.734Z,48.39
2018-05-13T06:26:03.045Z,47.77
2018-05-13T06:28:29.391Z,47.63
2018-05-13T06:30:55.669Z,47.17
2018-05-13T06:33:22.706Z,47.36
2018-05-13T06:35:49.716Z,47.49
2018-05-13T06:38:16.005Z,47.25
2018-05-13T06:40:42.296Z,47.52
2018-05-13T06:43:08.581Z,46.89
2018-05-13T06:45:34.829Z,47.29
2018-05-13T06:48:01.149Z,47.23
2018-05-13T06:50:27.422Z,46.55
2018-05-13T06:52:53.686Z,46.59
2018-05-13T06:55:19.972Z,45.72
2018-05-13T06:57:47.800Z,45.27
2018-05-13T07:00:14.094Z,44.30
2018-05-13T07:02:41.171Z,44.61
2018-05-13T07:05:08.179Z,42.91
2018-05-13T07:07:34.482Z,43.53
2018-05-13T07:10:00.769Z,42.07
2018-05-13T07:12:27.065Z,42.58
2018-05-13T07:14:53.334Z,42.70
2018-05-13T07:17:19.596Z,42.25
2018-05-13T07:19:45.879Z,41.78
2018-05-13T07:22:12.858Z,42.94
2018-05-13T07:24:39.180Z,41.33
2018-05-13T07:27:05.435Z,41.80
2018-05-13T07:29:31.742Z,39.10
2018-05-13T07:31:58.029Z,40.85
2018-05-13T07:34:24.305Z,39.51
2018-05-13T07:36:50.561Z,39.13
2018-05-13T07:39:16.840Z,40.47
2018-05-13T07:41:43.114Z,39.19
2018-05-13T07:44:09.400Z,41.10
2018-05-13T07:46:36.399Z,37.35
2018-05-13T07:49:02.756Z,40.41
2018-05-13T07:51:29.745Z,39.95
2018-05-13T07:53:55.982Z,38.60
2018-05-13T07:56:22.233Z,39.35
2018-05-13T08:01:21.519Z,39.07
2018-05-13T08:03:47.802Z,39.57
2018-05-13T08:06:14.098Z,37.71
2018-05-13T08:08:40.400Z,38.02
2018-05-13T08:11:06.658Z,39.10
2018-05-13T08:13:32.943Z,36.23
2018-05-13T08:15:59.972Z,36.64
2018-05-13T08:18:26.232Z,37.94
2018-05-13T08:20:52.473Z,37.90
2018-05-13T08:23:18.782Z,37.52
2018-05-13T08:25:45.060Z,36.25
2018-05-13T08:28:11.313Z,36.55
2018-05-13T08:30:45.497Z,36.76
2018-05-13T08:33:11.830Z,36.19
2018-05-13T08:35:38.096Z,36.61
2018-05-13T08:38:04.350Z,36.76
2018-05-13T08:40:31.469Z,35.63
2018-05-13T08:42:57.750Z,37.27
2018-05-13T08:45:24.031Z,35.55
2018-05-13T08:47:50.276Z,36.51
2018-05-13T08:50:16.534Z,37.13
2018-05-13T08:52:42.794Z,36.63
2018-05-13T08:55:09.086Z,36.82
2018-05-13T08:57:35.346Z,37.66
2018-05-13T09:00:01.652Z,36.53
2018-05-13T09:02:27.932Z,37.27
2018-05-13T09:04:54.203Z,36.21
2018-05-13T09:07:21.205Z,36.50
2018-05-13T09:09:47.557Z,36.33
2018-05-13T09:12:13.808Z,36.49
2018-05-13T09:14:40.846Z,36.11
2018-05-13T09:17:07.856Z,36.24
2018-05-13T09:19:34.149Z,36.19
2018-05-13T09:22:00.365Z,35.86
2018-05-13T09:24:27.421Z,36.44
2018-05-13T09:26:53.719Z,36.10
2018-05-13T09:29:19.988Z,35.89
2018-05-13T09:31:46.271Z,34.86
2018-05-13T09:34:12.600Z,35.73
2018-05-13T09:36:38.878Z,35.87
2018-05-13T09:39:05.180Z,35.82
2018-05-13T09:41:32.193Z,35.69
2018-05-13T09:43:58.477Z,35.97
2018-05-13T09:46:24.767Z,35.97
2018-05-13T09:48:52.523Z,36.24
2018-05-13T09:51:18.878Z,36.48
2018-05-13T09:53:45.118Z,35.81
2018-05-13T09:56:12.181Z,35.48
2018-05-13T09:58:38.556Z,35.21
2018-05-13T10:01:04.870Z,33.09
2018-05-13T10:03:31.288Z,32.13
2018-05-13T10:05:57.595Z,32.44
2018-05-13T10:08:24.631Z,32.36
2018-05-13T10:10:52.006Z,31.33
2018-05-13T10:13:18.986Z,33.27
2018-05-13T10:15:45.293Z,31.61
2018-05-13T10:18:11.616Z,30.71
2018-05-13T10:20:38.655Z,30.80
2018-05-13T10:23:05.684Z,30.72
2018-05-13T10:25:31.974Z,29.35
2018-05-13T10:27:58.272Z,27.48
2018-05-13T10:30:25.300Z,30.61
2018-05-13T10:32:52.329Z,27.57
2018-05-13T10:35:18.630Z,28.08
2018-05-13T10:37:44.970Z,29.81
2018-05-13T10:40:11.280Z,27.69
2018-05-13T10:42:37.553Z,27.30
2018-05-13T10:45:03.981Z,28.84
2018-05-13T10:47:30.335Z,26.83
2018-05-13T10:49:56.670Z,27.70
2018-05-13T10:52:23.708Z,29.12
2018-05-13T10:54:50.030Z,27.36
2018-05-13T10:57:16.326Z,27.95
2018-05-13T10:59:42.650Z,27.29
2018-05-13T11:02:08.951Z,26.58
2018-05-13T11:04:35.951Z,25.95
2018-05-13T11:07:02.263Z,26.58
2018-05-13T11:09:28.616Z,27.30
2018-05-13T11:11:54.963Z,28.89
2018-05-13T11:14:21.204Z,27.77
2018-05-13T11:16:47.438Z,28.28
2018-05-13T11:19:13.727Z,27.95
2018-05-13T11:21:39.970Z,27.22
2018-05-13T11:24:06.221Z,28.67
2018-05-13T11:26:32.526Z,25.54
2018-05-13T11:28:58.804Z,27.08
2018-05-13T11:31:25.810Z,25.75
2018-05-13T11:33:52.163Z,24.69
2018-05-13T11:36:19.077Z,25.37
2018-05-13T11:38:45.353Z,26.61
2018-05-13T11:41:12.404Z,23.77
2018-05-13T11:43:38.728Z,24.59
2018-05-13T11:46:05.782Z,23.87
2018-05-13T11:48:32.821Z,25.20
2018-05-13T11:50:59.870Z,25.30
2018-05-13T11:53:26.868Z,24.21
2018-05-13T11:55:53.200Z,23.83
2018-05-13T11:58:19.478Z,24.79
2018-05-13T12:00:46.541Z,24.20
2018-05-13T12:03:12.847Z,25.71
2018-05-13T12:05:39.907Z,25.57
2018-05-13T12:08:06.943Z,25.18
2018-05-13T12:10:33.261Z,25.95
2018-05-13T12:12:59.568Z,26.14
2018-05-13T12:15:25.942Z,25.81
2018-05-13T12:17:53.017Z,25.78
2018-05-13T12:20:19.324Z,24.97
2018-05-13T12:22:45.712Z,24.02
2018-05-13T12:25:11.999Z,24.08
2018-05-13T12:27:39.091Z,24.14
2018-05-13T12:30:05.393Z,24.88
2018-05-13T12:32:31.761Z,24.86
2018-05-13T12:34:58.068Z,24.46
2018-05-13T12:37:24.436Z,23.67
2018-05-13T12:39:50.731Z,23.08
2018-05-13T12:42:17.039Z,23.54
2018-05-13T12:44:43.574Z,23.75
2018-05-13T12:47:09.858Z,23.68
2018-05-13T12:49:36.211Z,22.66
2018-05-13T12:52:02.733Z,22.64
2018-05-13T12:54:30.500Z,22.89
2018-05-13T12:56:56.767Z,23.07
2018-05-13T12:59:23.785Z,22.52
2018-05-13T13:01:50.147Z,23.34
2018-05-13T13:04:16.393Z,23.17
2018-05-13T13:06:42.686Z,23.49
2018-05-13T13:09:09.053Z,22.82
2018-05-13T13:11:35.284Z,22.24
2018-05-13T13:14:01.573Z,21.85
2018-05-13T13:16:27.897Z,22.79
2018-05-13T13:18:54.219Z,23.08
2018-05-13T13:21:20.496Z,22.18
2018-05-13T13:23:46.810Z,22.75
2018-05-13T13:26:13.831Z,22.09
2018-05-13T13:28:40.122Z,22.64
2018-05-13T13:31:06.494Z,23.16
2018-05-13T13:33:32.815Z,22.71
2018-05-13T13:35:59.233Z,22.35
2018-05-13T13:38:25.583Z,21.50
2018-05-13T13:40:51.905Z,22.03
2018-05-13T13:43:18.199Z,21.49
2018-05-13T13:45:44.506Z,22.21
2018-05-13T13:48:11.606Z,21.78
2018-05-13T13:50:37.944Z,20.93
2018-05-13T13:53:04.311Z,21.45
2018-05-13T13:55:30.655Z,21.71
2018-05-13T13:57:57.739Z,20.07
2018-05-13T14:00:24.587Z,20.70
2018-05-13T14:02:50.907Z,19.67
2018-05-13T14:05:17.174Z,19.08
2018-05-13T14:07:43.495Z,20.08
2018-05-13T14:10:09.830Z,19.39
2018-05-13T14:12:36.111Z,19.91
2018-05-13T14:15:03.180Z,19.95
2018-05-13T14:17:29.605Z,20.48
2018-05-13T14:19:55.903Z,21.46
2018-05-13T14:22:22.937Z,21.57
2018-05-13T14:24:49.183Z,21.91
2018-05-13T14:27:16.231Z,21.07
2018-05-13T14:29:43.233Z,21.78
2018-05-13T14:32:09.546Z,21.60
2018-05-13T14:34:35.833Z,21.68
2018-05-13T14:37:02.135Z,20.40
2018-05-13T14:39:28.403Z,21.61
2018-05-13T14:41:55.446Z,21.79
2018-05-13T14:44:22.443Z,21.47
2018-05-13T14:46:48.846Z,21.51
2018-05-13T14:49:15.128Z,21.72
2018-05-13T14:51:42.144Z,21.86
2018-05-13T14:54:08.615Z,20.47
2018-05-13T14:56:34.899Z,21.36
2018-05-13T14:59:01.233Z,20.93
2018-05-13T15:01:27.543Z,20.07
2018-05-13T15:03:54.676Z,20.66
2018-05-13T15:06:20.959Z,20.24
2018-05-13T15:08:47.250Z,20.88
2018-05-13T15:11:14.310Z,20.18
2018-05-13T15:13:40.603Z,20.22
2018-05-13T15:16:06.883Z,20.27
2018-05-13T15:18:33.330Z,19.27
2018-05-13T15:20:59.596Z,19.35
2018-05-13T15:23:25.854Z,19.42
2018-05-13T15:25:52.913Z,19.88
2018-05-13T15:28:19.408Z,20.39
2018-05-13T15:30:45.741Z,20.22
2018-05-13T15:33:12.187Z,19.34
2018-05-13T15:35:39.236Z,19.52
2018-05-13T15:38:06.321Z,20.23
2018-05-13T15:40:32.597Z,20.17
2018-05-13T15:42:58.941Z,20.15
2018-05-13T15:45:25.312Z,19.71
2018-05-13T15:47:51.612Z,19.89
2018-05-13T15:50:18.659Z,19.76
2018-05-13T15:52:45.789Z,19.06
2018-05-13T15:55:12.163Z,19.33
2018-05-13T15:57:38.369Z,20.13
2018-05-13T16:00:05.548Z,19.56
2018-05-13T16:02:31.876Z,20.13
2018-05-13T16:04:58.218Z,20.68
2018-05-13T16:07:24.567Z,21.30
2018-05-13T16:09:50.885Z,20.18
2018-05-13T16:12:17.323Z,20.18
2018-05-13T16:14:43.614Z,20.57
2018-05-13T16:17:10.702Z,20.52
2018-05-13T16:19:37.016Z,19.01
2018-05-13T16:22:03.328Z,20.88
2018-05-13T16:24:30.414Z,19.27
2018-05-13T16:26:56.688Z,20.37
2018-05-13T16:29:23.006Z,18.96
2018-05-13T16:31:49.295Z,18.83
2018-05-13T16:34:15.607Z,21.48
2018-05-13T16:36:42.580Z,19.75
2018-05-13T16:39:08.878Z,19.63
2018-05-13T16:41:35.990Z,21.32
2018-05-13T16:44:02.358Z,19.19
2018-05-13T16:46:29.404Z,19.72
2018-05-13T16:48:56.455Z,19.56
2018-05-13T16:51:23.548Z,21.36
2018-05-13T16:53:49.923Z,19.81
2018-05-13T16:56:16.263Z,20.30
2018-05-13T16:58:43.381Z,21.04
2018-05-13T17:01:09.692Z,20.99
2018-05-13T17:03:36.036Z,19.83
2018-05-13T17:06:02.355Z,20.94
2018-05-13T17:08:28.671Z,20.07
2018-05-13T17:10:55.032Z,20.71
2018-05-13T17:13:21.317Z,20.81
2018-05-13T17:15:47.669Z,19.38
2018-05-13T17:18:13.948Z,20.20
2018-05-13T17:20:40.261Z,19.91
2018-05-13T17:23:06.701Z,19.86
2018-05-13T17:25:33.024Z,21.67
2018-05-13T17:27:59.319Z,21.13
2018-05-13T17:30:25.694Z,21.06
2018-05-13T17:32:52.025Z,20.99
2018-05-13T17:35:18.365Z,20.59
2018-05-13T17:37:44.755Z,21.33
2018-05-13T17:40:11.045Z,23.09
2018-05-13T17:42:38.075Z,21.97
2018-05-13T17:45:04.390Z,21.88
2018-05-13T17:47:30.700Z,20.95
2018-05-13T17:49:57.168Z,20.79
2018-05-13T17:52:23.431Z,21.88
2018-05-13T17:54:50.462Z,22.64
2018-05-13T17:57:16.862Z,22.15
2018-05-13T17:59:43.130Z,24.56
2018-05-13T18:02:10.156Z,25.84
2018-05-13T18:04:36.425Z,26.46
2018-05-13T18:07:03.477Z,24.17
2018-05-13T18:09:29.759Z,23.88
2018-05-13T18:11:56.066Z,25.65
2018-05-13T18:14:22.436Z,25.59
2018-05-13T18:16:48.951Z,27.63
2018-05-13T18:19:15.268Z,27.97
2018-05-13T18:21:41.675Z,28.21
2018-05-13T18:24:07.950Z,25.88
2018-05-13T18:26:34.211Z,26.33
2018-05-13T18:29:01.271Z,25.74
2018-05-13T18:31:28.283Z,28.76
2018-05-13T18:33:54.611Z,26.83
2018-05-13T18:36:20.962Z,26.77
2018-05-13T18:38:47.952Z,26.00
2018-05-13T18:41:14.438Z,27.26
2018-05-13T18:43:40.891Z,28.57
2018-05-13T18:46:08.051Z,26.59
2018-05-13T18:48:49.292Z,26.91
2018-05-13T18:51:15.611Z,27.55
2018-05-13T18:53:41.948Z,28.40
2018-05-13T18:56:08.222Z,30.17
2018-05-13T18:58:34.780Z,27.72
2018-05-13T19:01:01.050Z,28.71
2018-05-13T19:03:27.360Z,31.11
2018-05-13T19:05:53.700Z,27.66
2018-05-13T19:08:20.010Z,28.28
2018-05-13T19:10:53.242Z,27.40
2018-05-13T19:13:19.627Z,28.78
2018-05-13T19:15:45.917Z,28.47
2018-05-13T19:18:13.010Z,30.22
2018-05-13T19:20:39.308Z,30.24
2018-05-13T19:23:06.311Z,28.84
2018-05-13T19:25:32.686Z,30.04
2018-05-13T19:27:58.971Z,29.48
2018-05-13T19:30:25.314Z,29.88
2018-05-13T19:32:51.632Z,32.67
2018-05-13T19:35:17.915Z,32.20
2018-05-13T19:37:44.997Z,30.89
2018-05-13T19:40:11.288Z,30.34
2018-05-13T19:42:38.309Z,29.64
2018-05-13T19:45:06.129Z,32.05
2018-05-13T19:47:32.403Z,32.60
2018-05-13T19:50:00.247Z,32.77
2018-05-13T19:52:26.548Z,29.79
2018-05-13T19:54:52.820Z,29.59
2018-05-13T19:57:19.164Z,28.84
2018-05-13T19:59:46.337Z,30.10
2018-05-13T20:02:13.911Z,33.15
2018-05-13T20:04:41.087Z,31.72
2018-05-13T20:07:07.532Z,30.88
2018-05-13T20:09:33.964Z,31.29
2018-05-13T20:12:00.240Z,34.63
2018-05-13T20:14:27.368Z,33.75
2018-05-13T20:16:53.674Z,30.10
2018-05-13T20:19:19.967Z,30.41
2018-05-13T20:21:47.097Z,34.87
2018-05-13T20:24:13.494Z,31.79
2018-05-13T20:26:39.807Z,31.15
2018-05-13T20:29:06.096Z,32.36
2018-05-13T20:31:32.374Z,32.17
2018-05-13T20:33:58.679Z,31.88
2018-05-13T20:36:25.012Z,31.98
2018-05-13T20:38:51.333Z,32.45
2018-05-13T20:41:18.392Z,32.89
2018-05-13T20:43:44.715Z,32.82
2018-05-13T20:46:10.999Z,32.90
2018-05-13T20:48:37.285Z,33.78
2018-05-13T20:51:03.564Z,33.67
2018-05-13T20:53:29.878Z,33.96
2018-05-13T20:55:56.208Z,34.28
2018-05-13T20:58:22.458Z,34.34
2018-05-13T21:00:48.753Z,34.98
2018-05-13T21:03:15.037Z,35.29
2018-05-13T21:05:41.381Z,35.23
2018-05-13T21:08:08.382Z,35.18
2018-05-13T21:10:34.635Z,35.58
2018-05-13T21:13:00.894Z,35.63
2018-05-13T21:15:27.966Z,35.49
2018-05-13T21:17:54.264Z,35.61
2018-05-13T21:20:21.271Z,35.66
2018-05-13T21:22:47.585Z,35.96
2018-05-13T21:25:13.819Z,36.91
2018-05-13T21:27:40.109Z,36.80
2018-05-13T21:30:07.243Z,37.08
2018-05-13T21:32:33.447Z,37.64
2018-05-13T21:34:59.701Z,38.28
2018-05-13T21:37:25.983Z,37.63
2018-05-13T21:39:52.218Z,37.67
2018-05-13T21:42:18.472Z,37.64
2018-05-13T21:44:44.714Z,38.47
2018-05-13T21:47:11.014Z,38.44
2018-05-13T21:49:37.259Z,38.63
2018-05-13T21:52:03.559Z,39.26
2018-05-13T21:54:29.837Z,39.44
2018-05-13T21:56:56.842Z,40.39
2018-05-13T21:59:23.172Z,40.69
2018-05-13T22:01:49.470Z,40.43
2018-05-13T22:04:15.733Z,40.17
2018-05-13T22:06:42.882Z,40.09
2018-05-13T22:09:09.137Z,40.27
2018-05-13T22:11:35.447Z,40.39
2018-05-13T22:14:01.720Z,40.35
2018-05-13T22:16:28.758Z,40.43
2018-05-13T22:18:55.026Z,40.43
2018-05-13T22:21:21.269Z,40.81
2018-05-13T22:23:47.503Z,40.85
2018-05-13T22:26:13.771Z,41.26
2018-05-13T22:28:41.466Z,41.16
2018-05-13T22:31:07.736Z,42.07
2018-05-13T22:33:34.026Z,41.68
2018-05-13T22:36:01.011Z,42.41
2018-05-13T22:38:27.259Z,42.44
2018-05-13T22:40:53.512Z,42.14
2018-05-13T22:43:20.546Z,42.48
2018-05-13T22:45:48.283Z,42.71
2018-05-13T22:48:14.588Z,42.68
2018-05-13T22:50:40.865Z,42.53
2018-05-13T22:53:07.176Z,42.64
2018-05-13T22:55:33.467Z,42.86
2018-05-13T22:58:00.494Z,42.95
2018-05-13T23:00:26.783Z,43.25
2018-05-13T23:02:53.084Z,43.27
2018-05-13T23:05:19.421Z,43.27
2018-05-13T23:07:45.607Z,43.48
2018-05-13T23:10:11.835Z,43.77
2018-05-13T23:12:39.555Z,44.42
2018-05-13T23:15:05.795Z,44.73
2018-05-13T23:17:32.050Z,45.31
2018-05-13T23:19:59.034Z,45.65
2018-05-13T23:22:33.523Z,45.84
2018-05-13T23:24:59.759Z,45.96
2018-05-13T23:27:25.998Z,45.72
2018-05-13T23:29:52.975Z,45.75
2018-05-13T23:32:19.212Z,45.82
2018-05-13T23:34:45.438Z,45.74
2018-05-13T23:37:11.660Z,45.69
2018-05-13T23:39:37.880Z,45.95
2018-05-13T23:42:04.105Z,46.62
2018-05-13T23:44:30.388Z,46.46
2018-05-13T23:46:56.651Z,46.61
2018-05-13T23:49:23.640Z,46.77
2018-05-13T23:51:49.876Z,47.40
2018-05-13T23:54:16.127Z,47.75
2018-05-13T23:56:42.385Z,48.02
2018-05-13T23:59:09.359Z,47.99
